METAR Data
IDs: Format: Raw Decoded Include TAF

Data at: 1215 UTC 17 Sep 2019

KBWI 171210Z 06009KT 7SM BKN015 BKN060 BKN110 22/18 A3008 RMK AO2 T02170178
KBWI 171154Z 05010KT 10SM SCT015 BKN060 BKN110 22/18 A3008 RMK AO2 SLP184 T02170178 10244 20217 53019
KBWI 171054Z 04010KT 10SM FEW011 SCT060 BKN100 22/18 A3006 RMK AO2 SLP176 T02170178
KBWI 171020Z 04010KT 10SM SCT011 BKN060 BKN100 22/19 A3005 RMK AO2 T02170189
KBWI 170954Z 03010KT 10SM BKN010 OVC060 22/19 A3004 RMK AO2 SLP170 T02170189
KBWI 170854Z 04007KT 10SM BKN012 OVC060 22/19 A3002 RMK AO2 SLP165 T02220189 53002
KBWI 170834Z 07009KT 10SM BKN012 OVC060 22/19 A3002 RMK AO2 T02220189
KBWI 170754Z 05009KT 10SM SCT065 BKN080 OVC110 23/18 A3001 RMK AO2 SLP161 T02280183
KBWI 170654Z 05005KT 10SM SCT060 BKN085 OVC110 24/18 A3002 RMK AO2 SLP163 T02390178
KBWI 170554Z VRB03KT 10SM BKN070 BKN110 24/17 A3001 RMK AO2 SLP162 T02390172 10278 20239 53003
KBWI 170454Z 05006KT 10SM FEW070 BKN120 24/17 A3001 RMK AO2 SLP160 T02440172 403390156
KBWI 170354Z 06004KT 10SM FEW070 BKN110 25/17 A3001 RMK AO2 SLP159 T02500172
KBWI 170254Z 04007KT 10SM BKN070 OVC110 26/17 A3001 RMK AO2 SLP159 T02610172 53010
KBWI 170154Z 06008KT 10SM BKN110 26/18 A3000 RMK AO2 SLP156 T02610178
KBWI 170054Z 08006KT 10SM FEW085 BKN110 27/17 A2998 RMK AO2 SLP152 T02670172
KBWI 162354Z 10006KT 10SM FEW085 BKN110 28/17 A2998 RMK AO2 SLP149 T02780167 10339 20278 53006
KBWI 162254Z 10008KT 10SM FEW085 BKN110 BKN250 28/18 A2996 RMK AO2 SLP145 T02780178
KBWI 162154Z 07008KT 10SM BKN070 BKN110 BKN250 29/19 A2996 RMK AO2 SLP142 T02940189
KBWI 162054Z 12007KT 10SM BKN070 BKN160 30/18 A2996 RMK AO2 SLP142 T03000183 56015
KBWI 161954Z VRB03KT 10SM FEW065 FEW110 BKN160 BKN250 32/14 A2996 RMK AO2 SLP143 ACSL S-SW AND NW-N T03220139
KBWI 161854Z 00000KT 10SM FEW065 SCT110 SCT160 SCT250 33/13 A2998 RMK AO2 SLP150 ACSL NE T03280133
KBWI 161754Z 26004KT 10SM FEW060 FEW110 FEW160 SCT250 32/16 A3000 RMK AO2 SLP157 T03220156 10328 20200 58022
KBWI 161654Z 35003KT 10SM FEW060 FEW110 SCT160 SCT250 31/16 A3003 RMK AO2 SLP166 T03110161
KBWI 161554Z 27005KT 10SM SCT090 BKN120 BKN250 29/17 A3004 RMK AO2 SLP172 T02890172
KBWI 161454Z 31004KT 10SM BKN090 28/18 A3007 RMK AO2 SLP180 T02830178 58001
KBWI 161354Z 00000KT 10SM BKN100 27/17 A3007 RMK AO2 SLP182 T02670172
KBWI 161254Z 00000KT 10SM FEW120 FEW250 23/17 A3007 RMK AO2 SLP181 T02330167
KBWI 161154Z 00000KT 10SM FEW120 FEW250 20/16 A3007 RMK AO2 SLP181 T02000161 10200 20161 53001
KBWI 161054Z 00000KT 10SM FEW120 17/15 A3007 RMK AO2 SLP180 T01720150
KBWI 160954Z 00000KT 10SM BKN120 18/15 A3007 RMK AO2 SLP180 T01780150
KBWI 160854Z 26004KT 10SM BKN110 18/15 A3007 RMK AO2 SLP180 T01780150 56008
KBWI 160754Z 29003KT 10SM SCT110 17/15 A3007 RMK AO2 SLP180 T01670150
KBWI 160654Z 00000KT 10SM SCT110 17/15 A3007 RMK AO2 SLP182 T01720150
KBWI 160554Z 30003KT 10SM FEW110 17/15 A3009 RMK AO2 SLP188 T01720150 10272 20156 58003
KBWI 160454Z 00000KT 10SM FEW110 FEW160 17/15 A3009 RMK AO2 SLP188 T01720150 403170172
KBWI 160354Z 29003KT 10SM FEW160 SCT250 18/15 A3010 RMK AO2 SLP192 T01780150
KBWI 160254Z 28003KT 10SM FEW160 SCT250 20/14 A3010 RMK AO2 SLP191 T02000144 53003
KBWI 160154Z 00000KT 10SM SCT250 21/15 A3010 RMK AO2 SLP190 T02110150
KBWI 160054Z 00000KT 10SM FEW250 22/14 A3009 RMK AO2 SLP188 T02220139